Aérodrome :
LOGIN :

S'inscrire | Disclaimer

   EN    FR    IT 

 










Légende :    VFR   VFR Marginal   IFR   IFR Intensif   IFR Très Intensif
Visi : 
Plafond : 
>= 8 km
>= 3000ft
5 à 8 km
1000 à 3000 ft
1500m à 5 km
500 à 1000 ft
800 à 1500m
200 à 500 ft
< 800m
< 200 ft
Symboles :   Orages  Brouillard  Fortes neiges  Fortes précipitations  Vent > 20 kt
SIGMETs :   Divers  Orages  Givrage  Turbulence  Onde Orograph.  Cendres Volcan.







- Altitude de l'aérodrome : 390 ft
- Code IATA : NQY
- Voir les cartes d'approche


EGHQ - Newquay

DERNIER METAR :
  • 161950Z 27020KT 9999 SCT026 07/04 Q1004

METARs EXPIRÉS :
  • 161920Z 26020KT 9999 VCSH SCT024 07/04 Q1004
  • 161850Z 25014KT 9999 SCT024CB BKN048 07/04 Q1005
  • 161820Z 26020KT 9999 VCSH FEW024CB SCT030 07/03 Q1005 RERA
  • 161750Z 26016KT 9999 FEW020CB SCT025 07/04 Q1005 RERA
  • 161720Z 26013KT 9999 VCSH FEW020CB FEW025 07/03 Q1005

TAF TAF EGHQ
Valide du 16 à 18h jusqu'au 16 à 22h UTC


161703Z 1618/1622 27009KT 9999 SCT025
TEMPO 1618/1622 30015G25KT 7000 SHRA BKN010
PROB30
TEMPO 1618/1622 4000 +SHRAGS BKN008
Pas de NOTAMs connus pour ce terrain.



MET'MAP, la Météo Aéronautique d'un coup d'oeil ! - Copyright ORBIFLY Décembre 2007 - Disclaimer

ORBIFLY MET'MAP TEAM :

Programmation & Développement : Alexandra Zaïnal
Conception & Développement : Baudouin d'Aumeries
Co-Programmation & Développement : Marc-Olivier Méhu
Soutien technique & logistique : Manuel Goepfert

Contact : metmap@orbifly.com




SOURCES & CREDITS :

   NOAA